Time;durP1;ratioP1;P1;durP2;ratioP2;P2;SDS_P1;SDS_P2;PMS_P1;PMS_P2;Temp;Humidity;BMP_temperature;BMP_pressure;BME280_temperature;BME280_humidity;BME280_pressure;Samples;Min_cycle;Max_cycle;Signal;HPM_P1;HPM_P2
2022/07/20 00:02:14;;;;;;;9.15;8.25;;;;;;;16.92;100.00;99222.66;2163147;82;21073;-82
2022/07/20 00:05:15;;;;;;;10.70;8.80;;;;;;;16.88;100.00;99224.89;2158879;82;20974;-83
2022/07/20 00:11:19;;;;;;;12.55;8.63;;;;;;;16.83;100.00;99227.88;2154604;82;21563;-82
2022/07/20 00:11:21;;;;;;;11.30;8.13;;;;;;;16.74;100.00;99219.34;2159815;82;21053;-82
2022/07/20 00:14:22;;;;;;;10.68;9.05;;;;;;;16.61;100.00;99220.14;2164592;81;21100;-83
2022/07/20 00:17:23;;;;;;;10.75;7.87;;;;;;;16.56;100.00;99225.75;2168754;81;21057;-82
2022/07/20 00:20:24;;;;;;;8.55;7.75;;;;;;;16.52;100.00;99223.20;2169376;81;21138;-83
2022/07/20 00:23:25;;;;;;;10.68;8.63;;;;;;;16.50;100.00;99218.94;2154866;82;21028;-84
2022/07/20 00:26:25;;;;;;;9.33;7.75;;;;;;;16.49;100.00;99216.50;2158692;82;21545;-83
2022/07/20 00:29:26;;;;;;;9.18;7.70;;;;;;;16.45;100.00;99217.41;2149471;82;21553;-82
2022/07/20 00:32:27;;;;;;;9.60;8.28;;;;;;;16.44;100.00;99218.42;2160449;82;21026;-83
2022/07/20 00:35:28;;;;;;;12.93;8.90;;;;;;;16.43;100.00;99209.39;2158925;82;21002;-83
2022/07/20 00:38:28;;;;;;;9.38;8.38;;;;;;;16.42;100.00;99219.66;2159244;82;21077;-83
2022/07/20 00:41:29;;;;;;;8.70;7.58;;;;;;;16.40;100.00;99216.41;2157556;82;21560;-83
2022/07/20 00:44:30;;;;;;;9.20;8.35;;;;;;;16.38;100.00;99213.98;2163157;82;21145;-83
2022/07/20 00:47:31;;;;;;;10.68;8.40;;;;;;;16.39;100.00;99220.08;2154808;82;20989;-83
2022/07/20 00:50:32;;;;;;;11.65;9.38;;;;;;;16.40;100.00;99215.09;2161012;82;20970;-83
2022/07/20 00:53:32;;;;;;;10.23;9.13;;;;;;;16.40;100.00;99217.22;2155199;82;21028;-83
2022/07/20 00:56:33;;;;;;;12.47;8.83;;;;;;;16.39;100.00;99220.08;2150014;82;21015;-83
2022/07/20 00:59:34;;;;;;;11.75;8.83;;;;;;;16.36;100.00;99218.63;2160362;82;21564;-83
2022/07/20 01:02:34;;;;;;;10.32;7.97;;;;;;;16.32;100.00;99220.07;2158102;82;21541;-83
2022/07/20 01:05:35;;;;;;;10.28;8.23;;;;;;;16.29;100.00;99215.20;2160050;81;20978;-83
2022/07/20 01:08:36;;;;;;;10.53;8.80;;;;;;;16.26;100.00;99216.91;2163872;82;21009;-82
2022/07/20 01:11:37;;;;;;;9.55;8.08;;;;;;;16.24;100.00;99214.98;2159498;82;21111;-83
2022/07/20 01:14:37;;;;;;;12.70;8.35;;;;;;;16.23;100.00;99216.52;2159611;81;20967;-83
2022/07/20 01:17:38;;;;;;;10.45;9.10;;;;;;;16.20;100.00;99225.67;2163245;82;21563;-83
2022/07/20 01:20:39;;;;;;;12.33;8.95;;;;;;;16.19;100.00;99217.45;2156104;82;21108;-83
2022/07/20 01:23:40;;;;;;;12.13;8.60;;;;;;;16.17;100.00;99220.27;2162430;82;21014;-82
2022/07/20 01:26:40;;;;;;;10.65;9.05;;;;;;;16.14;100.00;99218.03;2158383;82;21545;-82
2022/07/20 01:29:41;;;;;;;10.20;8.45;;;;;;;16.11;100.00;99225.06;2162726;82;21462;-83
2022/07/20 01:32:42;;;;;;;10.32;8.85;;;;;;;16.06;100.00;99220.88;2158977;82;21691;-83
2022/07/20 01:35:42;;;;;;;11.80;8.08;;;;;;;16.02;100.00;99224.14;2163038;82;21600;-84
2022/07/20 01:38:43;;;;;;;11.03;9.28;;;;;;;16.00;100.00;99218.22;2161181;82;21017;-83
2022/07/20 01:41:44;;;;;;;10.90;7.70;;;;;;;15.99;100.00;99221.38;2157666;82;21029;-83
2022/07/20 01:44:45;;;;;;;10.75;8.30;;;;;;;15.99;100.00;99213.95;2159284;82;21022;-83
2022/07/20 01:47:45;;;;;;;12.18;8.68;;;;;;;15.98;100.00;99214.98;2154880;82;21059;-83
2022/07/20 01:50:46;;;;;;;10.63;8.40;;;;;;;15.94;100.00;99213.26;2148956;81;21083;-81
2022/07/20 01:53:47;;;;;;;12.03;8.25;;;;;;;15.88;100.00;99219.34;2142317;82;20997;-82
2022/07/20 01:56:48;;;;;;;10.00;8.88;;;;;;;15.76;100.00;99219.62;2151253;82;21005;-82
2022/07/20 01:59:48;;;;;;;10.05;8.43;;;;;;;15.61;100.00;99229.84;2151501;82;21008;-82
2022/07/20 02:02:49;;;;;;;12.68;9.35;;;;;;;15.56;100.00;99219.05;2147975;82;21010;-83
2022/07/20 02:05:49;;;;;;;12.18;8.65;;;;;;;15.53;100.00;99223.39;2162183;82;21463;-82
2022/07/20 02:08:50;;;;;;;10.38;8.55;;;;;;;15.48;100.00;99222.38;2163455;81;21101;-83
2022/07/20 02:11:51;;;;;;;9.93;8.73;;;;;;;15.47;100.00;99224.20;2157836;82;20998;-83
2022/07/20 02:14:52;;;;;;;11.18;8.13;;;;;;;15.47;100.00;99217.61;2151655;82;20986;-83
2022/07/20 02:17:52;;;;;;;14.95;9.10;;;;;;;15.47;100.00;99216.80;2165670;81;21093;-83
2022/07/20 02:20:53;;;;;;;13.72;9.28;;;;;;;15.45;100.00;99216.97;2158316;82;21015;-83
2022/07/20 02:23:54;;;;;;;15.13;8.98;;;;;;;15.43;100.00;99208.95;2161498;82;21009;-83
2022/07/20 02:26:55;;;;;;;10.70;9.48;;;;;;;15.39;100.00;99216.46;2162918;82;21048;-83
2022/07/20 02:29:55;;;;;;;11.78;9.15;;;;;;;15.36;100.00;99217.68;2163020;82;21461;-83
2022/07/20 02:32:56;;;;;;;13.30;9.23;;;;;;;15.29;100.00;99216.84;2154695;82;21058;-83
2022/07/20 02:35:57;;;;;;;11.60;8.80;;;;;;;15.25;100.00;99218.73;2162989;82;20950;-83
2022/07/20 02:38:58;;;;;;;11.15;8.85;;;;;;;15.21;100.00;99226.23;2158129;82;21018;-82
2022/07/20 02:41:58;;;;;;;11.08;8.50;;;;;;;15.17;100.00;99215.75;2155496;82;21604;-82
2022/07/20 02:44:59;;;;;;;11.63;9.18;;;;;;;15.20;100.00;99221.98;2158954;82;21020;-82
2022/07/20 02:48:03;;;;;;;10.30;8.60;;;;;;;15.18;100.00;99216.09;2162996;82;21492;-83
2022/07/20 02:51:04;;;;;;;14.25;9.35;;;;;;;15.17;100.00;99216.27;2158513;82;21078;-83
2022/07/20 02:54:05;;;;;;;10.95;8.50;;;;;;;15.18;100.00;99220.05;2156220;82;21544;-82
2022/07/20 02:57:05;;;;;;;10.63;8.78;;;;;;;15.19;100.00;99224.31;2144408;81;21069;-83
2022/07/20 03:00:06;;;;;;;14.60;8.88;;;;;;;15.20;100.00;99229.08;2169350;81;21575;-83
2022/07/20 03:03:07;;;;;;;10.93;8.93;;;;;;;15.21;100.00;99231.52;2147453;82;21099;-83
2022/07/20 03:06:08;;;;;;;12.33;9.25;;;;;;;15.23;100.00;99233.44;2153137;82;21041;-83
2022/07/20 03:09:10;;;;;;;10.05;9.05;;;;;;;15.32;100.00;99228.81;2156526;82;21116;-83
2022/07/20 03:12:10;;;;;;;12.60;9.08;;;;;;;15.43;100.00;99228.74;2159283;82;21084;-83
2022/07/20 03:15:11;;;;;;;13.43;8.70;;;;;;;15.55;100.00;99227.17;2163809;81;21005;-83
2022/07/20 03:18:12;;;;;;;14.55;8.70;;;;;;;15.69;100.00;99230.67;2164709;81;21077;-83
2022/07/20 03:21:12;;;;;;;11.80;9.05;;;;;;;15.90;100.00;99231.83;2155099;82;21064;-83
2022/07/20 03:24:13;;;;;;;12.35;8.20;;;;;;;16.18;100.00;99237.77;2164889;82;20986;-82
2022/07/20 03:27:14;;;;;;;10.60;8.88;;;;;;;16.45;100.00;99239.87;2162707;81;21226;-83
2022/07/20 03:30:16;;;;;;;10.70;8.90;;;;;;;16.82;100.00;99243.41;2162956;82;21081;-83
2022/07/20 03:33:17;;;;;;;12.05;8.80;;;;;;;17.18;100.00;99246.87;2162780;82;21581;-83
2022/07/20 03:36:17;;;;;;;9.55;8.28;;;;;;;17.59;100.00;99249.95;2148739;82;20998;-83
2022/07/20 03:39:18;;;;;;;9.75;8.75;;;;;;;18.03;100.00;99260.74;2157906;82;21005;-83
2022/07/20 03:42:19;;;;;;;12.00;8.45;;;;;;;18.43;100.00;99259.92;2153293;82;21020;-82
2022/07/20 03:45:19;;;;;;;9.70;7.72;;;;;;;18.83;100.00;99263.55;2154017;82;20983;-82
2022/07/20 03:48:20;;;;;;;9.53;8.25;;;;;;;19.19;100.00;99252.14;2154545;82;21599;-83
2022/07/20 03:51:21;;;;;;;10.30;8.48;;;;;;;19.67;100.00;99255.37;2147169;81;21006;-82
2022/07/20 03:54:22;;;;;;;10.03;8.43;;;;;;;20.12;100.00;99262.38;2162739;82;21010;-82
2022/07/20 03:57:22;;;;;;;9.83;8.08;;;;;;;20.58;100.00;99260.85;2153404;82;21367;-82
2022/07/20 04:00:23;;;;;;;10.80;8.08;;;;;;;21.05;100.00;99264.28;2166053;82;21030;-82
2022/07/20 04:03:24;;;;;;;10.75;8.73;;;;;;;21.56;100.00;99263.47;2163103;82;21466;-83
2022/07/20 04:06:24;;;;;;;8.28;7.47;;;;;;;22.13;100.00;99269.34;2164709;81;21059;-83
2022/07/20 04:12:44;;;;;;;11.22;8.55;;;;;;;23.24;97.16;99276.87;2159353;82;21061;-83
2022/07/20 04:15:45;;;;;;;10.25;7.55;;;;;;;23.83;91.25;99270.33;2155295;82;20966;-82
2022/07/20 04:18:46;;;;;;;11.83;7.45;;;;;;;24.40;85.44;99278.34;2158743;81;21564;-83
2022/07/20 04:21:46;;;;;;;9.48;7.42;;;;;;;24.82;82.25;99277.03;2153104;82;21043;-83
2022/07/20 04:24:47;;;;;;;9.00;8.10;;;;;;;25.37;77.83;99273.05;2157415;82;20974;-83
2022/07/20 04:27:48;;;;;;;7.90;6.25;;;;;;;25.92;73.02;99278.31;2159000;82;21042;-84
2022/07/20 04:30:48;;;;;;;9.08;7.50;;;;;;;26.26;71.75;99285.33;2160271;82;21021;-84
2022/07/20 04:33:49;;;;;;;9.78;8.08;;;;;;;26.74;69.08;99279.67;2147199;82;20997;-85
2022/07/20 04:36:50;;;;;;;10.25;8.10;;;;;;;27.14;63.50;99282.81;2157915;81;21076;-84
2022/07/20 04:39:51;;;;;;;12.28;9.03;;;;;;;27.33;60.99;99286.50;2157757;81;21564;-84
2022/07/20 04:42:51;;;;;;;8.80;7.75;;;;;;;27.56;60.13;99286.95;2154798;82;20996;-83
2022/07/20 04:45:52;;;;;;;9.85;8.35;;;;;;;27.83;57.65;99289.25;2157329;82;21041;-84
2022/07/20 04:48:53;;;;;;;8.63;7.55;;;;;;;27.96;56.38;99285.92;2156442;82;21557;-84
2022/07/20 04:51:54;;;;;;;8.88;7.15;;;;;;;28.39;53.87;99288.86;2151772;82;20991;-84
2022/07/20 04:54:54;;;;;;;9.23;7.17;;;;;;;28.53;52.55;99292.48;2158531;82;21587;-84
2022/07/20 04:57:55;;;;;;;9.88;7.60;;;;;;;28.93;51.88;99291.87;2152543;82;20996;-85
2022/07/20 05:00:56;;;;;;;16.85;8.30;;;;;;;29.35;51.67;99298.67;2162857;82;21043;-84
2022/07/20 05:03:56;;;;;;;15.58;10.23;;;;;;;29.79;50.92;99296.20;2158196;82;21049;-85
2022/07/20 05:06:57;;;;;;;17.23;9.53;;;;;;;29.92;48.07;99299.55;2159119;82;20990;-84
2022/07/20 05:09:58;;;;;;;12.58;9.45;;;;;;;29.64;48.01;99308.58;2155281;81;21599;-83
2022/07/20 05:12:59;;;;;;;16.17;9.73;;;;;;;29.73;48.46;99304.94;2159043;81;20998;-84
2022/07/20 05:16:00;;;;;;;15.32;10.05;;;;;;;29.76;47.35;99312.20;2159525;82;21010;-83
2022/07/20 05:19:00;;;;;;;13.18;9.30;;;;;;;29.54;47.76;99317.62;2162750;82;21048;-84
2022/07/20 05:22:01;;;;;;;9.75;8.85;;;;;;;29.38;47.51;99324.25;2163029;82;21015;-84
2022/07/20 05:25:02;;;;;;;9.55;8.65;;;;;;;28.88;46.05;99329.87;2154098;81;21076;-84
2022/07/20 05:28:03;;;;;;;11.48;9.73;;;;;;;28.40;46.81;99323.58;2159392;82;21077;-84
2022/07/20 05:31:03;;;;;;;11.40;8.80;;;;;;;28.32;46.82;99326.33;2154585;82;21049;-82
2022/07/20 05:34:04;;;;;;;10.38;9.40;;;;;;;28.19;47.38;99332.88;2155027;82;21604;-84
2022/07/20 05:37:05;;;;;;;10.05;9.05;;;;;;;27.91;47.61;99333.06;2158448;82;21021;-84
2022/07/20 05:40:06;;;;;;;10.08;9.00;;;;;;;27.68;47.80;99333.97;2163238;82;20994;-84
2022/07/20 05:43:06;;;;;;;12.25;10.13;;;;;;;27.78;48.88;99329.08;2157825;82;21053;-83
2022/07/20 05:46:07;;;;;;;10.38;9.35;;;;;;;27.64;48.65;99326.71;2152821;82;21034;-82
2022/07/20 05:49:08;;;;;;;9.98;9.13;;;;;;;27.50;48.25;99327.84;2145579;82;21009;-82
2022/07/20 05:52:08;;;;;;;10.60;9.55;;;;;;;27.14;48.54;99323.92;2147748;82;21071;-82
2022/07/20 05:55:09;;;;;;;10.10;8.73;;;;;;;26.97;49.21;99323.40;2163026;82;21033;-84
2022/07/20 05:58:10;;;;;;;11.10;9.60;;;;;;;26.87;49.69;99325.56;2154270;81;21374;-83
2022/07/20 06:01:11;;;;;;;10.88;9.70;;;;;;;26.93;49.79;99327.72;2163149;81;21541;-84
2022/07/20 06:04:11;;;;;;;11.08;10.05;;;;;;;27.07;49.70;99323.43;2151385;82;21010;-84
2022/07/20 06:07:12;;;;;;;11.75;10.43;;;;;;;26.98;49.53;99319.66;2154762;82;21080;-84
2022/07/20 06:10:13;;;;;;;13.05;9.45;;;;;;;26.94;49.87;99327.44;2152589;82;21138;-84
2022/07/20 06:13:14;;;;;;;11.73;10.53;;;;;;;27.01;50.00;99326.36;2151401;82;20990;-85
2022/07/20 06:16:15;;;;;;;11.85;10.32;;;;;;;27.07;49.66;99337.41;2150067;82;21494;-84
2022/07/20 06:19:15;;;;;;;10.58;9.80;;;;;;;27.06;50.18;99342.48;2150802;82;20987;-84
2022/07/20 06:22:16;;;;;;;12.23;10.63;;;;;;;27.10;50.37;99344.91;2150942;82;21041;-84
2022/07/20 06:25:17;;;;;;;11.33;10.20;;;;;;;27.16;50.04;99341.15;2150797;82;21470;-84
2022/07/20 06:28:18;;;;;;;11.93;10.70;;;;;;;27.15;49.79;99343.00;2158718;82;20985;-84
2022/07/20 06:31:18;;;;;;;12.20;10.90;;;;;;;27.21;49.89;99338.42;2167859;82;20997;-84
2022/07/20 06:34:19;;;;;;;11.28;10.15;;;;;;;27.26;48.27;99343.80;2163968;82;21025;-83
2022/07/20 06:37:20;;;;;;;11.38;10.38;;;;;;;27.13;48.00;99339.79;2152363;82;21141;-84
2022/07/20 06:40:21;;;;;;;9.73;8.85;;;;;;;27.10;48.39;99339.00;2146298;82;21024;-85
2022/07/20 06:43:23;;;;;;;12.00;9.43;;;;;;;27.02;46.18;99336.84;2152617;82;20985;-83
2022/07/20 06:46:23;;;;;;;11.78;9.85;;;;;;;26.77;47.36;99337.67;2173511;81;21029;-83
2022/07/20 06:49:24;;;;;;;10.08;8.53;;;;;;;26.75;47.77;99343.05;2148939;82;21104;-83
2022/07/20 06:52:25;;;;;;;10.00;8.43;;;;;;;26.81;47.51;99338.76;2151847;82;21538;-84
2022/07/20 06:55:26;;;;;;;10.68;8.55;;;;;;;26.91;47.31;99340.09;2153756;82;21017;-83
2022/07/20 06:58:27;;;;;;;11.25;8.70;;;;;;;27.02;47.47;99337.37;2156964;82;21034;-84
2022/07/20 07:01:28;;;;;;;9.18;7.85;;;;;;;26.98;47.14;99340.35;2161226;82;20993;-85
2022/07/20 07:04:28;;;;;;;9.53;8.63;;;;;;;26.87;45.56;99341.69;2163142;81;21032;-85
2022/07/20 07:07:29;;;;;;;8.25;6.78;;;;;;;26.65;44.95;99342.53;2141752;82;20991;-84
2022/07/20 07:10:30;;;;;;;7.78;7.03;;;;;;;26.43;44.57;99336.63;2150391;82;21045;-84
2022/07/20 07:13:31;;;;;;;10.60;7.65;;;;;;;26.35;44.63;99336.06;2159062;82;21520;-83
2022/07/20 07:16:31;;;;;;;17.37;7.80;;;;;;;26.28;45.04;99334.70;2155463;82;21064;-84
2022/07/20 07:19:32;;;;;;;7.70;6.92;;;;;;;26.33;45.21;99334.19;2161373;82;21045;-83
2022/07/20 07:22:34;;;;;;;7.37;6.60;;;;;;;26.41;45.51;99335.53;2147730;82;21553;-84
2022/07/20 07:25:35;;;;;;;9.95;7.25;;;;;;;26.49;45.26;99340.38;2153941;82;21521;-86
2022/07/20 07:28:36;;;;;;;7.05;6.35;;;;;;;26.55;45.42;99341.19;2159228;82;20970;-84
2022/07/20 07:31:37;;;;;;;7.35;6.65;;;;;;;26.67;45.88;99342.25;2162888;82;21021;-83
2022/07/20 07:34:38;;;;;;;7.25;6.37;;;;;;;26.73;45.33;99350.05;2155633;82;21136;-82
2022/07/20 07:37:38;;;;;;;7.50;5.97;;;;;;;26.69;45.33;99348.16;2158295;82;21041;-82
2022/07/20 07:40:39;;;;;;;8.60;7.10;;;;;;;26.75;45.22;99345.74;2157993;82;21002;-83
2022/07/20 07:43:40;;;;;;;7.20;6.42;;;;;;;26.82;46.03;99352.99;2162541;82;21620;-82
2022/07/20 07:46:43;;;;;;;6.45;5.95;;;;;;;26.90;45.42;99353.25;2167137;82;21601;-85
2022/07/20 07:49:44;;;;;;;6.85;5.92;;;;;;;26.86;45.36;99358.88;2155233;82;21021;-85
2022/07/20 07:52:45;;;;;;;5.90;5.37;;;;;;;26.89;45.25;99353.53;2163063;82;21018;-86
2022/07/20 07:55:45;;;;;;;7.03;6.03;;;;;;;26.91;44.33;99354.86;2151904;82;20994;-84
2022/07/20 07:58:46;;;;;;;6.28;5.62;;;;;;;26.93;44.77;99351.36;2152958;82;21069;-86
2022/07/20 08:01:47;;;;;;;6.05;5.42;;;;;;;27.06;45.40;99353.23;2159065;82;20982;-85
2022/07/20 08:04:48;;;;;;;9.55;7.15;;;;;;;27.11;45.05;99352.70;2154939;82;21070;-83
2022/07/20 08:07:48;;;;;;;6.33;5.70;;;;;;;27.25;45.97;99351.61;2157730;82;21045;-83
2022/07/20 08:10:49;;;;;;;7.03;6.20;;;;;;;27.40;45.38;99352.87;2159296;81;20998;-85
2022/07/20 08:13:50;;;;;;;6.75;5.55;;;;;;;27.52;44.42;99342.34;2165234;82;21009;-81
2022/07/20 08:16:51;;;;;;;6.67;5.65;;;;;;;27.60;44.14;99348.50;2154428;82;21017;-84
2022/07/20 08:19:52;;;;;;;10.50;6.67;;;;;;;27.63;44.21;99340.70;2148044;82;20997;-84
2022/07/20 08:22:52;;;;;;;8.35;7.30;;;;;;;27.70;43.31;99346.59;2160629;82;21041;-80
2022/07/20 08:25:53;;;;;;;6.75;6.08;;;;;;;27.71;44.03;99333.98;2150528;82;20973;-80
2022/07/20 08:28:54;;;;;;;10.28;5.80;;;;;;;27.81;43.91;99337.16;2152537;82;21138;-83
2022/07/20 08:31:58;;;;;;;7.97;6.33;;;;;;;27.92;43.43;99336.81;2153320;82;21014;-84
2022/07/20 08:34:58;;;;;;;8.15;6.12;;;;;;;27.97;43.56;99334.07;2161257;82;21566;-87
2022/07/20 08:37:59;;;;;;;5.85;4.83;;;;;;;28.02;43.45;99335.40;2156716;82;20996;-84
2022/07/20 08:41:00;;;;;;;6.80;6.10;;;;;;;28.11;43.24;99336.16;2156674;82;21159;-83
2022/07/20 08:44:01;;;;;;;5.53;5.08;;;;;;;28.16;43.41;99334.22;2157637;82;21072;-83
2022/07/20 08:47:01;;;;;;;7.00;5.00;;;;;;;28.18;41.59;99330.73;2147946;82;21062;-85
2022/07/20 08:50:02;;;;;;;7.83;5.25;;;;;;;28.15;42.07;99327.23;2160384;82;21695;-85
2022/07/20 08:53:03;;;;;;;5.22;4.85;;;;;;;28.25;41.14;99332.54;2153296;82;21019;-87
2022/07/20 08:56:04;;;;;;;5.50;4.30;;;;;;;28.38;41.17;99335.19;2159754;82;21005;-85
2022/07/20 08:59:05;;;;;;;8.93;5.30;;;;;;;28.51;39.35;99328.34;2162281;81;21075;-87
2022/07/20 09:02:08;;;;;;;5.28;4.45;;;;;;;28.47;39.56;99331.34;2163820;81;21010;-86
2022/07/20 09:05:08;;;;;;;5.22;4.72;;;;;;;28.54;39.08;99331.28;2155605;81;21074;-86
2022/07/20 09:08:09;;;;;;;5.90;4.45;;;;;;;28.64;38.73;99335.78;2152398;82;21021;-86
2022/07/20 09:11:09;;;;;;;11.93;5.42;;;;;;;28.72;38.77;99328.44;2161352;82;21070;-86
2022/07/20 09:14:10;;;;;;;5.25;4.17;;;;;;;28.80;39.23;99325.13;2157164;82;21026;-85
2022/07/20 09:17:11;;;;;;;7.22;4.90;;;;;;;28.90;38.83;99324.25;2161368;81;21116;-83
2022/07/20 09:20:12;;;;;;;4.97;4.50;;;;;;;28.98;38.72;99320.91;2171883;81;20955;-81
2022/07/20 09:23:12;;;;;;;5.55;5.00;;;;;;;29.07;39.76;99320.54;2155011;82;21073;-82
2022/07/20 09:26:13;;;;;;;8.45;5.60;;;;;;;29.12;39.47;99329.94;2167400;81;20989;-84
2022/07/20 09:29:14;;;;;;;5.22;4.65;;;;;;;29.20;40.24;99331.75;2161101;81;21049;-82
2022/07/20 09:32:14;;;;;;;5.10;4.75;;;;;;;29.22;38.37;99329.02;2162850;82;21077;-86
2022/07/20 09:35:15;;;;;;;5.40;5.00;;;;;;;29.14;38.54;99327.75;2157183;82;21042;-88
2022/07/20 09:38:16;;;;;;;5.37;4.92;;;;;;;29.10;38.65;99332.12;2163279;82;21389;-88
2022/07/20 09:41:17;;;;;;;7.62;5.40;;;;;;;29.13;39.87;99323.45;2162738;82;21513;-86
2022/07/20 09:44:18;;;;;;;6.17;5.12;;;;;;;29.22;39.35;99325.52;2155121;82;21038;-81
2022/07/20 09:47:18;;;;;;;4.90;4.47;;;;;;;29.26;39.76;99320.63;2157350;82;21556;-81
2022/07/20 09:50:19;;;;;;;5.20;4.80;;;;;;;29.29;39.18;99317.34;2155222;82;21478;-84
2022/07/20 09:53:20;;;;;;;6.28;5.12;;;;;;;29.27;39.49;99322.23;2162659;81;21085;-82
2022/07/20 09:56:21;;;;;;;5.90;5.10;;;;;;;29.33;40.38;99320.26;2159497;82;21053;-83
2022/07/20 09:59:22;;;;;;;4.78;4.42;;;;;;;29.44;40.03;99317.69;2162730;82;20970;-85
2022/07/20 10:02:22;;;;;;;7.30;4.72;;;;;;;29.51;39.14;99311.98;2158789;82;21758;-83
2022/07/20 10:05:23;;;;;;;4.10;3.67;;;;;;;29.53;40.27;99313.28;2156505;82;21029;-81
2022/07/20 10:08:24;;;;;;;3.67;3.47;;;;;;;29.64;40.11;99308.58;2157466;82;21037;-84
2022/07/20 10:11:25;;;;;;;3.75;3.50;;;;;;;29.62;36.51;99315.59;2162227;81;21045;-83
2022/07/20 10:14:25;;;;;;;4.53;4.12;;;;;;;29.55;37.83;99315.17;2149292;82;20998;-84
2022/07/20 10:17:26;;;;;;;3.83;3.42;;;;;;;29.62;37.33;99315.59;2159224;82;21017;-84
2022/07/20 10:20:27;;;;;;;4.53;3.72;;;;;;;29.74;37.87;99320.58;2158229;82;21129;-85
2022/07/20 10:23:27;;;;;;;5.10;3.77;;;;;;;29.72;37.35;99307.94;2155703;82;21001;-83
2022/07/20 10:26:28;;;;;;;3.98;3.50;;;;;;;29.71;36.94;99315.75;2155504;82;21017;-83
2022/07/20 10:29:29;;;;;;;6.75;3.87;;;;;;;29.68;36.39;99307.70;2163076;82;20943;-83
2022/07/20 10:32:30;;;;;;;3.52;3.02;;;;;;;29.72;37.29;99304.69;2153689;82;21049;-83
2022/07/20 10:35:31;;;;;;;3.90;3.60;;;;;;;29.76;35.34;99310.30;2162867;82;21044;-83
2022/07/20 10:38:31;;;;;;;3.72;3.30;;;;;;;29.79;36.01;99310.25;2157466;82;21014;-84
2022/07/20 10:41:32;;;;;;;7.62;3.40;;;;;;;29.80;36.35;99307.25;2164080;82;21052;-84
2022/07/20 10:44:33;;;;;;;3.55;3.15;;;;;;;29.84;36.33;99295.35;2161209;82;21002;-82
2022/07/20 10:47:34;;;;;;;3.67;3.37;;;;;;;29.87;35.43;99301.50;2159884;82;21017;-83
2022/07/20 10:50:36;;;;;;;5.03;2.85;;;;;;;29.91;36.09;99295.80;2151061;81;21108;-85
2022/07/20 10:53:37;;;;;;;4.00;3.70;;;;;;;29.91;36.53;99296.59;2151734;82;21123;-84
2022/07/20 10:56:38;;;;;;;3.37;3.12;;;;;;;29.94;36.02;99296.00;2156470;82;20995;-85
2022/07/20 10:59:38;;;;;;;3.52;3.22;;;;;;;29.93;35.96;99293.59;2171512;81;21076;-84
2022/07/20 11:02:39;;;;;;;4.95;4.65;;;;;;;29.96;36.27;99291.65;2162961;82;21081;-82
2022/07/20 11:05:40;;;;;;;3.92;3.35;;;;;;;29.99;36.39;99283.79;2162960;82;21005;-85
2022/07/20 11:08:41;;;;;;;3.72;3.50;;;;;;;29.97;35.85;99298.10;2153770;82;21506;-85
2022/07/20 11:11:42;;;;;;;3.10;2.80;;;;;;;29.98;34.68;99301.05;2156920;82;22193;-82
2022/07/20 11:14:42;;;;;;;3.45;3.15;;;;;;;29.90;33.12;99291.46;2163030;82;21005;-84
2022/07/20 11:17:43;;;;;;;3.55;3.25;;;;;;;29.95;34.19;99293.55;2159983;81;21568;-83
2022/07/20 11:20:44;;;;;;;3.50;3.20;;;;;;;30.01;34.25;99295.64;2154304;82;21049;-85
2022/07/20 11:23:45;;;;;;;3.87;3.58;;;;;;;30.05;33.77;99289.09;2163083;82;21069;-84
2022/07/20 11:26:46;;;;;;;4.05;3.85;;;;;;;30.02;34.14;99287.23;2162947;82;21044;-83
2022/07/20 11:29:47;;;;;;;4.47;3.80;;;;;;;30.01;34.19;99296.44;2155731;82;21053;-87
2022/07/20 11:32:47;;;;;;;4.00;3.60;;;;;;;30.00;34.71;99311.03;2158514;81;21556;-87
2022/07/20 11:35:48;;;;;;;4.10;3.80;;;;;;;30.01;35.10;99305.88;2165912;81;21017;-85
2022/07/20 11:38:49;;;;;;;4.35;3.95;;;;;;;30.03;35.02;99296.14;2162878;82;21030;-86
2022/07/20 11:41:52;;;;;;;3.90;3.58;;;;;;;30.11;35.43;99296.05;2147976;82;21143;-85
2022/07/20 11:44:52;;;;;;;3.55;3.30;;;;;;;30.18;35.68;99297.30;2158606;82;21338;-84
2022/07/20 11:47:53;;;;;;;4.15;3.52;;;;;;;30.10;33.24;99300.66;2153774;82;21021;-86
2022/07/20 11:50:54;;;;;;;3.52;3.02;;;;;;;30.03;34.26;99296.14;2152994;82;21583;-82
2022/07/20 11:53:55;;;;;;;5.83;3.77;;;;;;;30.09;34.62;99291.50;2163480;82;21044;-84
2022/07/20 11:56:55;;;;;;;4.10;3.70;;;;;;;30.15;34.96;99289.76;2159493;82;21014;-84
2022/07/20 11:59:56;;;;;;;4.70;3.60;;;;;;;30.21;35.28;99290.49;2153151;82;21049;-82
2022/07/20 12:02:57;;;;;;;4.10;3.80;;;;;;;30.27;35.29;99282.57;2156414;82;21010;-83
2022/07/20 12:05:58;;;;;;;4.22;3.65;;;;;;;30.32;35.14;99291.13;2156521;82;22169;-82
2022/07/20 12:08:59;;;;;;;4.05;3.20;;;;;;;30.27;33.63;99294.17;2153095;81;21527;-84
2022/07/20 12:11:59;;;;;;;3.67;3.37;;;;;;;30.27;35.21;99279.32;2170153;81;20987;-83
2022/07/20 12:15:00;;;;;;;3.20;2.90;;;;;;;30.30;34.60;99279.27;2158270;82;21021;-83
2022/07/20 12:18:01;;;;;;;3.20;3.00;;;;;;;30.33;32.52;99288.12;2162755;81;21042;-82
2022/07/20 12:21:02;;;;;;;5.30;3.70;;;;;;;30.33;32.52;99288.12;2160656;82;21014;-82
2022/07/20 12:24:04;;;;;;;3.75;3.45;;;;;;;30.32;33.54;99273.56;2152513;82;21041;-84
2022/07/20 12:27:05;;;;;;;3.95;3.65;;;;;;;30.35;33.83;99275.67;2149579;82;21059;-85
2022/07/20 12:30:06;;;;;;;4.00;3.60;;;;;;;30.42;33.75;99276.89;2153224;82;22194;-84
2022/07/20 12:33:06;;;;;;;4.20;3.62;;;;;;;30.42;33.76;99275.55;2152555;82;21024;-83
2022/07/20 12:36:07;;;;;;;4.22;3.58;;;;;;;30.45;34.23;99266.87;2156486;82;20979;-82
2022/07/20 12:39:08;;;;;;;3.67;3.37;;;;;;;30.49;34.32;99267.06;2159943;81;21103;-81
2022/07/20 12:42:09;;;;;;;4.42;3.05;;;;;;;30.55;33.61;99268.03;2156936;81;21539;-83
2022/07/20 12:45:10;;;;;;;3.47;3.00;;;;;;;30.57;34.16;99263.68;2155391;81;21024;-83
2022/07/20 12:48:11;;;;;;;3.55;3.22;;;;;;;30.58;33.78;99269.33;2154799;82;21052;-82
2022/07/20 12:51:11;;;;;;;3.33;3.02;;;;;;;30.55;32.83;99265.33;2152083;82;21018;-82
2022/07/20 12:54:12;;;;;;;3.00;2.80;;;;;;;30.55;32.83;99265.33;2124351;83;21093;-82
2022/07/20 12:57:12;;;;;;;3.47;3.25;;;;;;;30.50;32.48;99266.76;2135218;83;21576;-82
2022/07/20 13:00:13;;;;;;;3.50;3.20;;;;;;;30.47;32.86;99264.66;2136224;83;21026;-83
2022/07/20 13:03:14;;;;;;;3.05;2.85;;;;;;;30.47;32.78;99262.52;2134534;83;21092;-82
2022/07/20 13:06:15;;;;;;;3.50;3.20;;;;;;;30.48;32.74;99261.41;2134389;83;21579;-83
2022/07/20 13:09:15;;;;;;;3.17;2.98;;;;;;;30.48;32.54;99262.21;2134400;83;20950;-83
2022/07/20 13:12:18;;;;;;;4.45;3.35;;;;;;;30.50;32.67;99270.02;2137222;83;20983;-84
2022/07/20 13:15:18;;;;;;;3.83;3.52;;;;;;;30.49;32.45;99259.75;2136742;83;21014;-84
2022/07/20 13:18:19;;;;;;;9.40;3.75;;;;;;;30.52;32.60;99261.85;2136373;83;21023;-83
2022/07/20 13:21:20;;;;;;;3.87;3.58;;;;;;;30.57;32.70;99263.13;2104709;83;21032;-85
2022/07/20 13:24:20;;;;;;;3.50;3.30;;;;;;;30.61;33.21;99247.66;2096090;85;20997;-82
2022/07/20 13:27:21;;;;;;;3.40;3.20;;;;;;;30.64;33.36;99246.53;2090020;85;20947;-82
2022/07/20 13:30:22;;;;;;;3.27;3.08;;;;;;;30.62;32.94;99250.61;2125178;83;22078;-82
2022/07/20 13:33:23;;;;;;;3.47;3.27;;;;;;;30.58;33.45;99243.66;2126973;84;21539;-83
2022/07/20 13:36:24;;;;;;;4.85;3.40;;;;;;;30.58;33.47;99245.02;2171080;81;21014;-82
2022/07/20 13:39:24;;;;;;;4.03;3.72;;;;;;;30.59;33.82;99245.27;2208161;80;21139;-83
2022/07/20 13:42:25;;;;;;;3.65;3.37;;;;;;;30.61;33.76;99247.11;2204181;80;20994;-81
2022/07/20 13:45:26;;;;;;;4.25;3.08;;;;;;;30.57;33.35;99232.05;2205171;80;22228;-87
2022/07/20 13:48:26;;;;;;;3.80;3.50;;;;;;;30.58;33.34;99235.56;2218610;80;21032;-84
2022/07/20 13:51:27;;;;;;;3.83;3.52;;;;;;;30.59;33.40;99233.10;2208613;80;21084;-85
2022/07/20 13:54:27;;;;;;;3.33;2.90;;;;;;;30.62;33.44;99233.84;2204259;80;20985;-84
2022/07/20 13:57:28;;;;;;;3.75;3.22;;;;;;;30.63;33.56;99224.64;2216043;80;21005;-84
2022/07/20 14:00:29;;;;;;;3.47;3.27;;;;;;;30.64;33.80;99231.67;2216449;80;21485;-83
2022/07/20 14:03:29;;;;;;;3.67;3.37;;;;;;;30.62;33.57;99226.30;2212452;80;21073;-84
2022/07/20 14:06:30;;;;;;;3.77;3.47;;;;;;;30.64;33.23;99228.17;2213093;80;21009;-79